Aviation Digital Data Service (ADDS)

Output produced by METARs form (0833 UTC 19 April 2019)
found at http://www.aviationweather.gov/metar/data/
 
Forecast for: PAJN (JUNEAU , AK, US)
Text: PAJN 190533Z 1906/2006 11008KT P6SM -SHRA SCT030 BKN040 OVC060
Forecast period: 0600 to 0900 UTC 19 April 2019
Forecast type: FROM: standard forecast or significant change
Winds: from the ESE (110 degrees) at 9 MPH (8 knots; 4.1 m/s)
Visibility: 6 or more miles 10+ km)
Ceiling: 4000 feet AGL
Clouds: scattered clouds at 3000 feet AGL
broken clouds at 4000 feet AGL
overcast cloud deck at 6000 feet AGL
Weather: -SHRA  (light rain showers)
Text: FM190900 10011KT 6SM -SHRA BR BKN025 BKN040 OVC060
Forecast period: 0900 to 1500 UTC 19 April 2019
Forecast type: FROM: standard forecast or significant change
Winds: from the E (100 degrees) at 13 MPH (11 knots; 5.7 m/s)
Visibility: 6 miles (10 km)
Ceiling: 2500 feet AGL
Clouds: broken clouds at 2500 feet AGL
broken clouds at 4000 feet AGL
overcast cloud deck at 6000 feet AGL
Weather: -SHRA BR  (light rain showers, mist)
Text: FM191500 11008KT P6SM -SHRA SCT025 OVC050
Forecast period: 1500 UTC 19 April 2019 to 0600 UTC 20 April 2019
Forecast type: FROM: standard forecast or significant change
Winds: from the ESE (110 degrees) at 9 MPH (8 knots; 4.1 m/s)
Visibility: 6 or more miles 10+ km)
Ceiling: 5000 feet AGL
Clouds: scattered clouds at 2500 feet AGL
overcast cloud deck at 5000 feet AGL
Weather: -SHRA  (light rain showers)